SBOSBO LPA / GCLP
Speedbird OnlineSpeedbird Online LPA / GCLP

Gran Canaria Airport
13:47 19.4°C

Location Gran Canaria, Spain
Latitude: 27.931900024414062
Longitude: -15.38659954071045
Web Airport Website | Wikipedia
Altitude 24 Meter / 78 Feet
Distance 2,924 KM / 1,817 Miles
from London.
Time Zone UTC 0 hours (Atlantic/Canary)
Codes IATA: LPA
ICAO: GCLP
Currency £1 equals EUR 1.14
Runways
RunwayLength (m)Surface
03L3100Asphalt
03R3100Asphalt
21L3100Asphalt
21R3100Asphalt
Radio
TypeDescriptionFrequency
APPAPP120.9
ATISATIS118.6
GNDGND121.7
TWRTWR118.3
Live ATC
METAR GCLP 311330Z 04011KT 010V070 9999 FEW035 SCT050 BKN080 19/11 Q1021 NOSIG
TAF TAF GCLP 310800Z 3109/0109 02015KT 9999 SCT040 TX20/3114Z TN15/0106Z PROB40 TEMPO 0106/0109 32006KT
Weather As Of 31 Jan 2023 13:47
Description Broken clouds
Wind 20 km/h from North-East (40°)
Cloud Cover 75%
Precipitation Rain: none, Snow: none
Sunrise 07:49
Sunset 18:40
Lounges AENA Sala Galdos , Depatures Area
Rotations During the last 90 days there were
43 flights from LGW
47 flights to LGW



Support Speedbird Online

© 2017-2023 Speedbird Online